Waterloo Regional Airport
KALO : rendu visible

Aérodrome :











RETROUVEZ-NOUS SUR...

 
LOGIN :

S'inscrire | Disclaimer

   EN    FR    IT 

 









Légende :    VFR   VFR Marginal   IFR   IFR Intensif   IFR Très Intensif
Visi : 
Plafond : 
>= 8 km
>= 3000ft
5 à 8 km
1000 à 3000 ft
1500m à 5 km
500 à 1000 ft
800 à 1500m
200 à 500 ft
< 800m
< 200 ft
Symboles :   Orages  Brouillard  Fortes neiges  Fortes précipitations  Vent > 20 kt






- Altitude de l'aérodrome : 873 ft
- Code IATA : ALO


KALO - Waterloo Regional

DERNIER METAR :
  • 250154Z AUTO 11003KT 10SM FEW055 23/19 A2984 RMK AO2 SLP100 T02330189

METARs EXPIRÉS :
  • 250054Z AUTO 00000KT 10SM CLR 26/18 A2983 RMK AO2 SLP096 T02560183
  • 242354Z AUTO 19006KT 10SM CLR 27/18 A2981 RMK AO2 SLP090 T02670178 10289 20233 53004

TAF KALO
Valide du 25 à 00h jusqu'au 26 à 00h UTC


242329Z 2500/2524 17008KT P6SM BKN070
TEMPO 2502/2506 4SM -TSRA OVC025CB
FM250900 17006KT P6SM BKN025
FM251600 20007KT P6SM BKN060
FM252200 18007KT 6SM -SHRA VCTS BKN060CB
FIR KZAU / Amérique du Nord



MET'MAP, la Météo Aéronautique d'un coup d'oeil ! - Copyright ORBIFLY Décembre 2007 - Disclaimer

ORBIFLY MET'MAP TEAM :

Programmation & Développement : Alexandra Zaïnal
Sur une idée originale de : Baudouin d'Aumeries
Assistance à la programmation : Marc-Olivier Méhu
Soutien technique & logistique : Manuel Goepfert

Contact : metmap@orbifly.com




SOURCES & CREDITS :

   NOAA       Earth
Advisory